Time;durP1;ratioP1;P1;durP2;ratioP2;P2;SDS_P1;SDS_P2;PMS_P1;PMS_P2;Temp;Humidity;BMP_temperature;BMP_pressure;BME280_temperature;BME280_humidity;BME280_pressure;Samples;Min_cycle;Max_cycle;Signal;HPM_P1;HPM_P2
2021/01/22 00:00:25;;;;;;;0.60;0.60;;;;;;;8.46;63.40;94956.31;299395;210;63019;-55
2021/01/22 00:05:26;;;;;;;0.60;0.60;;;;;;;8.48;63.33;94950.56;299395;203;63010;-63
2021/01/22 00:10:27;;;;;;;0.60;0.60;;;;;;;8.48;63.82;94916.22;299395;197;63009;-62
2021/01/22 00:15:30;;;;;;;0.60;0.60;;;;;;;8.17;64.90;94904.94;299395;216;63000;-62
2021/01/22 00:20:31;;;;;;;0.60;0.60;;;;;;;8.07;65.61;94917.69;299396;257;63009;-63
2021/01/22 00:25:32;;;;;;;0.60;0.60;;;;;;;7.85;67.03;94893.63;299396;212;63005;-61
2021/01/22 00:30:36;;;;;;;0.60;0.60;;;;;;;7.88;66.69;94890.28;299396;256;63009;-63
2021/01/22 00:35:37;;;;;;;0.60;0.60;;;;;;;7.78;67.37;94869.03;299417;220;64005;-63
2021/01/22 00:40:38;;;;;;;0.60;0.60;;;;;;;7.72;67.61;94868.44;299396;197;63009;-63
2021/01/22 00:45:39;;;;;;;0.60;0.60;;;;;;;7.82;66.67;94845.69;299396;325;63004;-61
2021/01/22 00:50:41;;;;;;;0.60;0.60;;;;;;;7.76;67.00;94851.59;299396;253;63009;-60
2021/01/22 00:55:42;;;;;;;0.60;0.60;;;;;;;7.50;68.24;94863.28;299396;230;63005;-64
2021/01/22 01:00:42;;;;;;;0.60;0.60;;;;;;;7.49;68.15;94837.41;299396;312;63009;-66
2021/01/22 01:05:43;;;;;;;0.60;0.60;;;;;;;7.46;68.70;94837.25;299397;214;63005;-59
2021/01/22 01:10:45;;;;;;;0.60;0.60;;;;;;;7.27;68.76;94830.34;299397;230;63009;-57
2021/01/22 01:15:46;;;;;;;0.60;0.60;;;;;;;7.33;68.30;94845.22;299396;358;63004;-63
2021/01/22 01:20:47;;;;;;;0.60;0.60;;;;;;;7.33;67.95;94834.44;299396;265;63009;-63
2021/01/22 01:25:48;;;;;;;0.60;0.60;;;;;;;7.38;67.96;94826.16;299396;250;63005;-59
2021/01/22 01:30:49;;;;;;;0.70;0.70;;;;;;;7.37;66.98;94824.56;299396;240;63008;-63
2021/01/22 01:35:52;;;;;;;0.60;0.60;;;;;;;7.47;66.93;94823.44;299396;208;63004;-62
2021/01/22 01:40:56;;;;;;;0.60;0.60;;;;;;;7.42;66.81;94826.31;299396;204;63009;-64
2021/01/22 01:45:57;;;;;;;0.60;0.60;;;;;;;7.44;67.42;94824.09;299418;197;63015;-63
2021/01/22 01:50:58;;;;;;;0.60;0.60;;;;;;;7.40;67.27;94832.03;299396;218;63009;-62
2021/01/22 01:56:00;;;;;;;0.60;0.60;;;;;;;7.58;66.68;94835.47;299396;236;63005;-63
2021/01/22 02:01:01;;;;;;;0.60;0.60;;;;;;;7.62;66.26;94833.69;299397;212;63008;-62
2021/01/22 02:06:05;;;;;;;0.75;0.75;;;;;;;7.73;65.98;94829.53;299396;237;63004;-58
2021/01/22 02:11:08;;;;;;;0.50;0.50;;;;;;;7.65;66.09;94834.94;299395;233;63020;-61
2021/01/22 02:16:10;;;;;;;0.60;0.60;;;;;;;7.74;64.98;94841.09;299395;236;63012;-66
2021/01/22 02:21:27;;;;;;;0.60;0.60;;;;;;;7.64;65.73;94838.75;299395;230;63009;-64
2021/01/22 02:27:06;;;;;;;0.60;0.60;;;;;;;7.61;65.65;94829.44;299395;237;63005;-63
2021/01/22 02:32:09;;;;;;;0.60;0.60;;;;;;;7.65;65.47;94832.25;299395;221;63009;-65
2021/01/22 02:37:18;;;;;;;0.60;0.60;;;;;;;7.55;65.71;94830.72;299395;311;63004;-64
2021/01/22 02:42:22;;;;;;;0.60;0.60;;;;;;;7.56;65.67;94845.81;299395;225;63009;-62
2021/01/22 02:47:27;;;;;;;0.60;0.60;;;;;;;7.56;65.44;94831.50;299417;367;63005;-62
2021/01/22 02:52:28;;;;;;;0.50;0.50;;;;;;;7.39;66.12;94838.53;299395;198;63020;-64
2021/01/22 02:58:03;;;;;;;0.60;0.60;;;;;;;7.40;66.01;94840.13;299395;277;63005;-66
2021/01/22 03:03:25;;;;;;;0.60;0.60;;;;;;;7.42;65.55;94836.31;299395;221;63009;-58
2021/01/22 03:08:28;;;;;;;0.60;0.60;;;;;;;7.25;66.05;94820.97;299394;257;64008;-64
2021/01/22 03:13:31;;;;;;;0.60;0.60;;;;;;;7.08;66.86;94832.59;299395;251;63009;-64
2021/01/22 03:18:33;;;;;;;0.60;0.60;;;;;;;7.03;66.88;94830.84;299395;222;63005;-63
2021/01/22 03:23:34;;;;;;;0.60;0.60;;;;;;;6.99;66.56;94827.22;299395;323;63008;-63
2021/01/22 03:28:35;;;;;;;0.60;0.60;;;;;;;7.06;66.94;94834.81;299395;237;63004;-64
2021/01/22 03:33:36;;;;;;;0.70;0.70;;;;;;;7.08;66.23;94832.59;299395;266;63029;-63
2021/01/22 03:38:37;;;;;;;0.60;0.60;;;;;;;7.00;66.55;94838.78;299395;209;63005;-63
2021/01/22 03:43:38;;;;;;;0.60;0.60;;;;;;;6.99;66.51;94835.28;299395;213;63018;-61
2021/01/22 03:48:41;;;;;;;0.60;0.60;;;;;;;7.05;66.05;94828.63;299395;199;63005;-63
2021/01/22 03:53:42;;;;;;;0.60;0.60;;;;;;;6.83;66.82;94814.56;299395;214;63009;-66
2021/01/22 03:58:43;;;;;;;0.60;0.60;;;;;;;6.89;66.05;94808.69;299395;202;63004;-63
2021/01/22 04:03:43;;;;;;;0.60;0.60;;;;;;;6.86;65.83;94798.53;299395;218;63009;-63
2021/01/22 04:08:44;;;;;;;0.60;0.60;;;;;;;6.94;65.48;94810.41;299395;248;63012;-64
2021/01/22 04:13:48;;;;;;;0.60;0.60;;;;;;;7.01;64.88;94799.91;299395;288;63009;-63
2021/01/22 04:18:49;;;;;;;0.60;0.60;;;;;;;6.98;64.92;94800.56;299395;207;63005;-64
2021/01/22 04:23:50;;;;;;;0.60;0.60;;;;;;;6.89;65.08;94776.34;299395;206;63022;-64
2021/01/22 04:28:56;;;;;;;0.60;0.60;;;;;;;6.91;64.60;94778.72;299395;239;63004;-60
2021/01/22 04:33:57;;;;;;;0.60;0.60;;;;;;;6.92;64.54;94764.91;299395;210;63009;-63
2021/01/22 04:38:58;;;;;;;0.60;0.60;;;;;;;7.05;63.72;94768.50;299395;242;63005;-64
2021/01/22 04:44:00;;;;;;;0.60;0.60;;;;;;;7.10;63.31;94760.25;299395;383;63009;-62
2021/01/22 04:49:04;;;;;;;0.62;0.62;;;;;;;7.05;63.16;94747.72;299395;229;63005;-60
2021/01/22 04:54:15;;;;;;;0.60;0.60;;;;;;;7.10;63.33;94732.50;299395;331;63009;-63
2021/01/22 04:59:22;;;;;;;0.70;0.70;;;;;;;7.27;62.71;94725.13;299395;211;63004;-56
2021/01/22 05:04:24;;;;;;;1.20;0.90;;;;;;;7.28;62.95;94710.50;299395;234;63009;-60
2021/01/22 05:09:25;;;;;;;0.60;0.60;;;;;;;7.25;63.17;94734.66;299395;223;63005;-60
2021/01/22 05:14:28;;;;;;;0.60;0.60;;;;;;;7.39;63.37;94730.62;299395;211;63008;-63
2021/01/22 05:19:32;;;;;;;0.60;0.60;;;;;;;7.47;63.08;94714.72;299395;221;63004;-60
2021/01/22 05:24:36;;;;;;;;;;;;;;;7.35;63.93;94715.41;299996;981;6024;-61
2021/01/22 05:29:39;;;;;;;0.60;0.60;;;;;;;7.36;63.96;94704.28;299400;237;63009;-61
2021/01/22 05:34:45;;;;;;;0.60;0.60;;;;;;;7.36;64.14;94703.50;299395;213;63010;-56
2021/01/22 05:40:13;;;;;;;0.60;0.60;;;;;;;7.35;64.12;94705.41;299395;307;63009;-59
2021/01/22 05:45:16;;;;;;;0.60;0.60;;;;;;;7.36;64.25;94703.50;299395;233;63005;-62
2021/01/22 05:50:17;;;;;;;0.60;0.60;;;;;;;7.32;64.29;94703.34;299395;202;63009;-60
2021/01/22 05:55:23;;;;;;;0.60;0.60;;;;;;;7.20;64.78;94711.37;299395;232;63005;-62
2021/01/22 06:00:27;;;;;;;0.60;0.60;;;;;;;7.32;64.28;94708.75;299395;207;63009;-56
2021/01/22 06:05:28;;;;;;;0.60;0.60;;;;;;;7.26;64.46;94718.16;299417;239;63004;-62
2021/01/22 06:10:32;;;;;;;0.60;0.60;;;;;;;7.21;64.60;94702.16;299395;214;63009;-60
2021/01/22 06:15:34;;;;;;;0.60;0.60;;;;;;;7.29;64.36;94693.22;299395;209;63005;-60
2021/01/22 06:20:42;;;;;;;0.60;0.60;;;;;;;7.38;64.22;94685.88;299395;230;63018;-62
2021/01/22 06:25:46;;;;;;;0.60;0.60;;;;;;;7.23;64.25;94694.53;299395;218;63004;-60
2021/01/22 06:30:49;;;;;;;0.60;0.60;;;;;;;7.22;64.64;94686.75;299417;305;63009;-63
2021/01/22 06:35:51;;;;;;;0.60;0.60;;;;;;;7.29;64.22;94668.94;299395;302;63004;-62
2021/01/22 06:40:53;;;;;;;0.60;0.60;;;;;;;7.28;64.43;94686.22;299395;213;63009;-67
2021/01/22 06:46:07;;;;;;;0.60;0.60;;;;;;;7.25;64.28;94686.13;299395;222;63005;-62
2021/01/22 06:51:17;;;;;;;0.60;0.60;;;;;;;7.17;64.71;94695.81;299377;371;125026;-62
2021/01/22 06:56:18;;;;;;;0.60;0.60;;;;;;;7.30;63.99;94684.00;299395;204;63004;-62
2021/01/22 07:01:33;;;;;;;0.60;0.60;;;;;;;7.15;64.31;94689.16;299395;198;63009;-60
2021/01/22 07:06:48;;;;;;;0.60;0.60;;;;;;;7.12;64.63;94681.72;299417;210;63004;-59
2021/01/22 07:11:55;;;;;;;0.88;0.88;;;;;;;7.23;64.20;94689.13;299417;207;63009;-61
2021/01/22 07:16:56;;;;;;;0.70;0.70;;;;;;;7.27;63.70;94684.69;299395;282;63005;-63
2021/01/22 07:21:58;;;;;;;0.70;0.70;;;;;;;7.16;64.51;94688.06;299395;208;63009;-60
2021/01/22 07:27:05;;;;;;;0.70;0.70;;;;;;;7.33;63.62;94685.25;299395;214;63004;-64
2021/01/22 07:32:09;;;;;;;0.60;0.60;;;;;;;7.21;64.23;94696.75;299395;282;63009;-61
2021/01/22 07:37:19;;;;;;;0.60;0.60;;;;;;;7.34;63.67;94690.31;299417;270;63005;-64
2021/01/22 07:42:27;;;;;;;0.60;0.60;;;;;;;7.27;63.58;94681.19;299395;213;63009;-57
2021/01/22 07:47:33;;;;;;;0.60;0.60;;;;;;;7.39;62.96;94679.34;299395;251;63005;-58
2021/01/22 07:52:46;;;;;;;0.60;0.60;;;;;;;7.25;63.83;94681.50;299395;213;63009;-63
2021/01/22 07:58:07;;;;;;;0.60;0.60;;;;;;;7.35;63.28;94686.53;299395;231;63004;-59
2021/01/22 08:03:11;;;;;;;0.60;0.60;;;;;;;7.27;63.69;94684.69;299395;202;63009;-60
2021/01/22 08:08:26;;;;;;;0.60;0.60;;;;;;;7.42;62.95;94685.22;299395;214;63005;-56
2021/01/22 08:13:27;;;;;;;;;;;;;;;7.54;62.74;94672.63;299996;983;6004;-59
2021/01/22 08:18:28;;;;;;;0.60;0.60;;;;;;;7.49;63.56;94663.91;299400;236;63009;-58
2021/01/22 08:23:34;;;;;;;0.60;0.60;;;;;;;7.59;63.27;94682.44;299394;218;64005;-60
2021/01/22 08:28:36;;;;;;;0.60;0.60;;;;;;;7.62;63.26;94679.09;299395;197;63008;-58
2021/01/22 08:33:38;;;;;;;0.60;0.60;;;;;;;7.70;63.29;94691.72;299395;218;63004;-59
2021/01/22 08:38:39;;;;;;;0.60;0.60;;;;;;;7.74;63.33;94681.84;299395;204;63009;-61
2021/01/22 08:43:54;;;;;;;0.60;0.60;;;;;;;7.80;63.04;94658.94;299395;221;63005;-64
2021/01/22 08:48:58;;;;;;;0.60;0.60;;;;;;;7.93;62.34;94657.87;299394;295;64013;-61
2021/01/22 08:53:58;;;;;;;0.70;0.70;;;;;;;8.08;61.23;94681.56;299417;263;63005;-60
2021/01/22 08:59:12;;;;;;;0.60;0.60;;;;;;;8.23;60.56;94676.69;299395;202;63009;-62
2021/01/22 09:04:18;;;;;;;0.60;0.60;;;;;;;8.32;60.50;94664.69;299395;337;63004;-64
2021/01/22 09:09:49;;;;;;;0.60;0.60;;;;;;;8.45;60.15;94679.06;299395;199;63009;-59
2021/01/22 09:15:04;;;;;;;0.60;0.60;;;;;;;8.53;59.34;94680.91;299395;235;63005;-59
2021/01/22 09:20:07;;;;;;;;;;;;;;;8.35;60.72;94690.28;299996;983;6004;-58
2021/01/22 09:25:11;;;;;;;0.60;0.60;;;;;;;8.48;60.39;94683.81;299400;246;63009;-59
2021/01/22 09:30:15;;;;;;;0.60;0.60;;;;;;;8.57;59.86;94683.72;299417;210;63005;-58
2021/01/22 09:35:18;;;;;;;0.60;0.60;;;;;;;8.58;60.22;94686.09;299417;232;63008;-59
2021/01/22 09:40:21;;;;;;;0.60;0.60;;;;;;;8.79;59.03;94683.31;299395;282;63004;-61
2021/01/22 09:45:22;;;;;;;0.60;0.60;;;;;;;9.02;58.66;94686.41;299395;206;63020;-59
2021/01/22 09:50:23;;;;;;;1.20;0.75;;;;;;;9.24;57.14;94696.81;299395;248;63005;-59
2021/01/22 09:55:24;;;;;;;0.60;0.60;;;;;;;9.31;57.52;94694.34;299395;196;63009;-60
2021/01/22 10:00:30;;;;;;;0.50;0.50;;;;;;;9.42;56.99;94694.66;299395;297;63005;-61
2021/01/22 10:05:31;;;;;;;0.60;0.60;;;;;;;9.58;56.65;94692.06;299395;197;63009;-63
2021/01/22 10:10:32;;;;;;;0.60;0.60;;;;;;;9.67;56.41;94690.03;299395;222;63004;-58
2021/01/22 10:15:33;;;;;;;0.60;0.60;;;;;;;9.80;55.53;94688.09;299395;216;63009;-62
2021/01/22 10:20:34;;;;;;;0.60;0.60;;;;;;;9.86;55.53;94668.56;299395;204;63005;-58
2021/01/22 10:25:35;;;;;;;0.60;0.60;;;;;;;9.71;57.26;94666.53;299395;223;63009;-58
2021/01/22 10:30:36;;;;;;;0.60;0.60;;;;;;;9.61;57.32;94661.62;299395;216;63005;-60
2021/01/22 10:35:37;;;;;;;0.60;0.60;;;;;;;9.65;57.17;94670.63;299395;206;63009;-58
2021/01/22 10:40:41;;;;;;;0.60;0.60;;;;;;;9.70;57.17;94678.53;299395;198;63004;-60
2021/01/22 10:45:42;;;;;;;0.60;0.60;;;;;;;9.82;56.76;94675.78;299417;203;63009;-59
2021/01/22 10:50:44;;;;;;;0.60;0.60;;;;;;;9.84;56.40;94673.53;299395;211;63005;-60
2021/01/22 10:55:46;;;;;;;0.60;0.60;;;;;;;9.91;55.33;94664.81;299395;226;63009;-60
2021/01/22 11:00:47;;;;;;;0.60;0.60;;;;;;;10.17;54.93;94669.81;299395;244;63005;-60
2021/01/22 11:05:48;;;;;;;0.60;0.60;;;;;;;10.07;55.54;94654.84;299395;220;63009;-66
2021/01/22 11:10:51;;;;;;;0.60;0.60;;;;;;;10.17;55.93;94650.84;299395;211;63004;-58
2021/01/22 11:15:52;;;;;;;0.60;0.60;;;;;;;10.22;55.47;94656.06;299395;213;63019;-60
2021/01/22 11:20:57;;;;;;;0.60;0.60;;;;;;;10.26;55.93;94651.53;299395;210;63005;-57
2021/01/22 11:25:59;;;;;;;0.60;0.60;;;;;;;10.43;54.85;94650.44;299395;219;63009;-63
2021/01/22 11:31:02;;;;;;;0.50;0.50;;;;;;;10.40;54.58;94649.19;299395;206;63005;-59
2021/01/22 11:36:04;;;;;;;0.60;0.60;;;;;;;10.40;54.67;94636.44;299395;354;63009;-59
2021/01/22 11:41:05;;;;;;;0.50;0.50;;;;;;;10.53;55.01;94628.25;299395;219;63004;-59
2021/01/22 11:46:05;;;;;;;0.60;0.60;;;;;;;10.70;54.38;94617.09;299395;230;63009;-66
2021/01/22 11:51:07;;;;;;;0.60;0.60;;;;;;;10.72;54.34;94614.81;299395;205;63005;-65
2021/01/22 11:56:09;;;;;;;0.60;0.60;;;;;;;10.73;53.72;94613.69;299395;222;63009;-65
2021/01/22 12:01:10;;;;;;;0.60;0.60;;;;;;;10.63;54.11;94606.84;299395;196;63005;-63
2021/01/22 12:06:11;;;;;;;0.60;0.60;;;;;;;10.68;52.93;94609.31;299395;218;63009;-58
2021/01/22 12:11:12;;;;;;;0.60;0.60;;;;;;;10.66;52.97;94589.87;299395;298;63010;-65
2021/01/22 12:16:13;;;;;;;0.60;0.60;;;;;;;10.68;52.48;94587.63;299395;218;63009;-64
2021/01/22 12:21:14;;;;;;;0.60;0.60;;;;;;;10.62;53.26;94589.00;299395;233;63005;-64
2021/01/22 12:26:15;;;;;;;0.60;0.60;;;;;;;10.82;51.32;94580.94;299395;275;63009;-64
2021/01/22 12:31:19;;;;;;;0.60;0.60;;;;;;;10.83;51.89;94566.25;299395;196;63005;-61
2021/01/22 12:36:20;;;;;;;0.60;0.60;;;;;;;10.93;50.40;94554.88;299417;222;63009;-59
2021/01/22 12:41:21;;;;;;;0.50;0.50;;;;;;;10.96;51.29;94548.75;299395;205;63004;-64
2021/01/22 12:46:22;;;;;;;0.60;0.60;;;;;;;10.94;50.72;94545.59;299395;224;63009;-59
2021/01/22 12:51:25;;;;;;;0.50;0.50;;;;;;;11.05;50.24;94541.22;299395;236;63005;-56
2021/01/22 12:56:26;;;;;;;0.50;0.50;;;;;;;10.94;50.57;94537.47;299396;224;63008;-63
2021/01/22 13:01:27;;;;;;;0.60;0.60;;;;;;;11.03;50.32;94533.44;299396;259;63004;-67
2021/01/22 13:06:29;;;;;;;0.50;0.50;;;;;;;11.01;49.49;94524.06;299396;279;63009;-64
2021/01/22 13:11:30;;;;;;;0.55;0.55;;;;;;;10.91;50.47;94513.75;299396;202;63004;-60
2021/01/22 13:16:31;;;;;;;0.60;0.60;;;;;;;10.86;50.60;94512.06;299396;196;63009;-64
2021/01/22 13:21:32;;;;;;;0.60;0.60;;;;;;;10.94;50.58;94502.97;299396;209;63005;-64
2021/01/22 13:26:33;;;;;;;0.60;0.60;;;;;;;11.05;50.19;94497.78;299396;206;63008;-65
2021/01/22 13:31:34;;;;;;;0.55;0.55;;;;;;;11.07;50.01;94490.87;299396;198;63009;-65
2021/01/22 13:36:35;;;;;;;0.60;0.60;;;;;;;11.11;50.24;94490.16;299396;205;63009;-66
2021/01/22 13:41:36;;;;;;;0.60;0.60;;;;;;;11.12;49.64;94502.56;299397;232;63005;-67
2021/01/22 13:46:40;;;;;;;0.60;0.60;;;;;;;11.21;51.90;94539.25;299397;228;63009;-63
2021/01/22 13:51:41;;;;;;;0.60;0.60;;;;;;;10.22;58.25;94577.47;299440;196;125005;-66
2021/01/22 13:56:42;;;;;;;0.60;0.60;;;;;;;9.25;62.17;94603.69;299396;198;63009;-64
2021/01/22 14:01:43;;;;;;;0.60;0.60;;;;;;;8.57;65.03;94614.25;299396;249;63004;-61
2021/01/22 14:06:44;;;;;;;0.62;0.62;;;;;;;8.20;65.79;94618.72;299396;233;63009;-66
2021/01/22 14:11:45;;;;;;;0.60;0.60;;;;;;;7.71;69.06;94631.22;299396;246;63005;-67
2021/01/22 14:16:46;;;;;;;2.45;2.35;;;;;;;7.92;68.09;94642.81;299396;204;63009;-68
2021/01/22 14:21:47;;;;;;;0.60;0.60;;;;;;;7.28;69.77;94648.47;299396;199;63005;-64
2021/01/22 14:26:48;;;;;;;0.60;0.60;;;;;;;6.87;71.30;94656.47;299396;212;63009;-58
2021/01/22 14:31:49;;;;;;;0.60;0.60;;;;;;;6.42;72.99;94665.00;299396;230;63004;-63
2021/01/22 14:36:51;;;;;;;0.60;0.60;;;;;;;6.08;74.65;94675.81;299395;259;64013;-64
2021/01/22 14:41:52;;;;;;;0.60;0.60;;;;;;;5.75;76.26;94678.16;299395;217;63005;-64
2021/01/22 14:46:53;;;;;;;0.77;0.77;;;;;;;5.54;77.45;94683.38;299395;272;63009;-64
2021/01/22 14:51:54;;;;;;;0.70;0.70;;;;;;;5.51;77.17;94673.25;299395;218;63005;-62
2021/01/22 14:56:54;;;;;;;0.70;0.70;;;;;;;5.41;76.97;94673.53;299395;283;63009;-62
2021/01/22 15:01:56;;;;;;;1.33;1.33;;;;;;;5.42;76.27;94688.56;299395;247;63010;-60
2021/01/22 15:06:57;;;;;;;0.75;0.75;;;;;;;5.18;76.90;94703.22;299395;215;63009;-56
2021/01/22 15:11:58;;;;;;;0.80;0.80;;;;;;;5.26;77.07;94699.75;299395;202;63005;-59
2021/01/22 15:16:59;;;;;;;0.70;0.70;;;;;;;4.93;78.12;94693.16;299395;198;63009;-64
2021/01/22 15:22:00;;;;;;;0.60;0.60;;;;;;;4.94;78.12;94714.34;299395;256;63005;-56
2021/01/22 15:27:01;;;;;;;0.70;0.70;;;;;;;5.13;76.86;94714.13;299395;211;63009;-57
2021/01/22 15:32:05;;;;;;;2.10;1.12;;;;;;;5.20;76.37;94711.75;299395;212;63004;-58
2021/01/22 15:37:06;;;;;;;0.98;0.98;;;;;;;4.86;77.97;94712.41;299395;272;63009;-64
2021/01/22 15:42:07;;;;;;;0.70;0.70;;;;;;;4.86;78.09;94733.09;299395;345;63005;-59
2021/01/22 15:47:08;;;;;;;0.70;0.70;;;;;;;4.67;79.06;94731.44;299395;228;63008;-58
2021/01/22 15:52:09;;;;;;;0.75;0.75;;;;;;;4.77;78.62;94729.59;299395;209;63012;-57
2021/01/22 15:57:11;;;;;;;0.70;0.70;;;;;;;4.67;78.70;94720.69;299395;243;63009;-58
2021/01/22 16:02:12;;;;;;;0.60;0.60;;;;;;;4.41;80.70;94732.41;299395;222;63004;-59
2021/01/22 16:07:15;;;;;;;0.70;0.70;;;;;;;4.52;80.03;94713.03;299395;300;63009;-57
2021/01/22 16:12:17;;;;;;;0.70;0.70;;;;;;;4.41;80.50;94722.44;299395;374;63005;-62
2021/01/22 16:17:19;;;;;;;0.90;0.90;;;;;;;4.28;80.91;94712.56;299395;293;63008;-61
2021/01/22 16:22:20;;;;;;;1.50;1.40;;;;;;;3.84;83.26;94708.75;299395;214;63004;-63
2021/01/22 16:27:21;;;;;;;0.90;0.90;;;;;;;4.03;83.25;94695.97;299395;271;63009;-63
2021/01/22 16:32:24;;;;;;;0.70;0.70;;;;;;;4.35;81.36;94688.75;299395;211;63004;-57
2021/01/22 16:37:25;;;;;;;0.70;0.70;;;;;;;4.24;81.69;94679.38;299394;252;64009;-62
2021/01/22 16:42:29;;;;;;;0.70;0.70;;;;;;;4.22;81.78;94679.69;299395;202;63005;-58
2021/01/22 16:47:34;;;;;;;1.48;1.42;;;;;;;3.98;82.31;94671.94;299395;210;63008;-61
2021/01/22 16:52:35;;;;;;;0.93;0.93;;;;;;;4.02;82.80;94672.94;299417;235;63004;-63
2021/01/22 16:57:36;;;;;;;0.95;0.95;;;;;;;4.12;82.24;94679.94;299373;203;63009;-62
2021/01/22 17:02:37;;;;;;;0.70;0.70;;;;;;;4.04;82.67;94680.66;299395;234;63009;-64
2021/01/22 17:07:38;;;;;;;0.70;0.70;;;;;;;3.93;83.21;94684.69;299395;207;63009;-64
2021/01/22 17:12:40;;;;;;;1.10;1.10;;;;;;;3.74;83.73;94674.13;299395;225;63005;-64
2021/01/22 17:17:41;;;;;;;0.70;0.70;;;;;;;3.86;83.72;94674.38;299395;221;63009;-59
2021/01/22 17:22:45;;;;;;;0.70;0.70;;;;;;;3.50;85.41;94676.28;299395;244;63009;-65
2021/01/22 17:27:46;;;;;;;0.70;0.70;;;;;;;3.43;86.21;94666.00;299417;204;63009;-64
2021/01/22 17:32:46;;;;;;;0.70;0.70;;;;;;;3.51;86.30;94677.88;299395;219;63005;-57
2021/01/22 17:37:48;;;;;;;0.70;0.70;;;;;;;3.55;85.40;94670.81;299395;205;63009;-58
2021/01/22 17:42:49;;;;;;;0.70;0.70;;;;;;;3.74;85.33;94679.50;299395;338;63010;-58
2021/01/22 17:47:51;;;;;;;0.70;0.70;;;;;;;3.71;84.94;94680.09;299395;220;63009;-57
2021/01/22 17:52:52;;;;;;;0.70;0.70;;;;;;;3.65;85.54;94676.75;299395;267;63004;-66
2021/01/22 17:57:54;;;;;;;0.70;0.70;;;;;;;3.85;84.08;94667.41;299395;333;63009;-58
2021/01/22 18:02:55;;;;;;;0.70;0.70;;;;;;;3.79;83.63;94657.94;299395;267;63005;-62
2021/01/22 18:07:56;;;;;;;0.60;0.60;;;;;;;3.93;83.30;94631.03;299395;219;63009;-59
2021/01/22 18:12:57;;;;;;;0.60;0.60;;;;;;;3.87;84.00;94638.41;299395;364;63005;-59
2021/01/22 18:17:58;;;;;;;0.60;0.60;;;;;;;3.65;84.70;94668.69;299395;226;63009;-57
2021/01/22 18:22:59;;;;;;;0.70;0.70;;;;;;;3.45;85.68;94684.44;299395;314;63004;-57
2021/01/22 18:28:00;;;;;;;0.70;0.70;;;;;;;3.45;85.98;94676.41;299395;227;63009;-57
2021/01/22 18:33:02;;;;;;;0.70;0.70;;;;;;;3.57;85.82;94677.44;299395;257;63005;-58
2021/01/22 18:38:02;;;;;;;0.70;0.70;;;;;;;3.55;86.07;94673.47;299395;210;63009;-63
2021/01/22 18:43:03;;;;;;;0.60;0.60;;;;;;;3.49;86.16;94680.84;299395;294;63005;-57
2021/01/22 18:48:05;;;;;;;0.60;0.60;;;;;;;3.47;86.39;94671.50;299395;318;63009;-65
2021/01/22 18:53:06;;;;;;;0.60;0.60;;;;;;;3.52;86.91;94660.69;299395;223;63004;-58
2021/01/22 18:58:07;;;;;;;0.70;0.70;;;;;;;3.76;85.50;94647.81;299395;351;63009;-59
2021/01/22 19:03:08;;;;;;;0.70;0.70;;;;;;;3.81;84.02;94628.88;299395;203;63008;-59
2021/01/22 19:08:09;;;;;;;0.70;0.70;;;;;;;3.59;85.56;94612.78;299395;323;63009;-59
2021/01/22 19:13:11;;;;;;;0.70;0.70;;;;;;;3.83;84.50;94610.59;299395;247;63005;-63
2021/01/22 19:18:13;;;;;;;0.70;0.70;;;;;;;3.77;84.37;94600.31;299395;202;63009;-57
2021/01/22 19:23:14;;;;;;;0.70;0.70;;;;;;;3.64;84.43;94601.94;299395;198;63004;-58
2021/01/22 19:28:15;;;;;;;0.70;0.70;;;;;;;3.49;84.96;94613.03;299395;317;63009;-63
2021/01/22 19:33:16;;;;;;;0.60;0.60;;;;;;;3.33;86.25;94621.44;299395;279;63005;-58
2021/01/22 19:38:17;;;;;;;0.70;0.70;;;;;;;3.37;86.60;94632.34;299395;197;63009;-59
2021/01/22 19:43:19;;;;;;;0.60;0.60;;;;;;;3.73;84.68;94636.88;299395;223;63004;-59
2021/01/22 19:48:20;;;;;;;0.70;0.70;;;;;;;3.43;85.15;94639.19;299394;202;64013;-58
2021/01/22 19:53:21;;;;;;;0.70;0.70;;;;;;;3.80;82.48;94627.31;299395;365;63004;-58
2021/01/22 19:58:25;;;;;;;0.70;0.70;;;;;;;3.57;84.36;94617.66;299395;245;63020;-61
2021/01/22 20:03:28;;;;;;;0.70;0.70;;;;;;;3.59;84.13;94615.47;299417;219;63005;-60
2021/01/22 20:08:29;;;;;;;0.77;0.77;;;;;;;3.72;83.77;94603.13;299395;363;63008;-62
2021/01/22 20:13:30;;;;;;;0.70;0.70;;;;;;;3.74;82.58;94596.34;299395;277;63004;-62
2021/01/22 20:18:31;;;;;;;0.70;0.70;;;;;;;3.66;82.75;94591.72;299395;240;63009;-61
2021/01/22 20:23:33;;;;;;;0.70;0.70;;;;;;;3.31;83.99;94607.53;299395;202;63004;-63
2021/01/22 20:28:34;;;;;;;0.82;0.82;;;;;;;2.96;86.08;94602.94;299395;208;63009;-60
2021/01/22 20:33:35;;;;;;;0.70;0.70;;;;;;;3.18;85.86;94619.06;299394;266;64005;-62
2021/01/22 20:38:36;;;;;;;0.70;0.70;;;;;;;3.28;85.50;94626.91;299395;207;63008;-59
2021/01/22 20:43:38;;;;;;;0.70;0.70;;;;;;;3.34;85.49;94640.97;299395;258;63012;-59
2021/01/22 20:48:42;;;;;;;0.70;0.70;;;;;;;3.69;82.58;94631.34;299395;211;63009;-62
2021/01/22 20:53:43;;;;;;;0.70;0.70;;;;;;;3.49;84.04;94647.88;299417;237;63005;-57
2021/01/22 20:58:44;;;;;;;1.58;1.50;;;;;;;3.68;82.59;94635.13;299395;205;63019;-60
2021/01/22 21:03:45;;;;;;;1.45;1.35;;;;;;;3.64;82.41;94631.44;299395;213;63005;-60
2021/01/22 21:08:46;;;;;;;0.80;0.80;;;;;;;3.49;83.22;94634.47;299395;197;63009;-69
2021/01/22 21:13:47;;;;;;;0.70;0.70;;;;;;;3.29;83.49;94649.91;299395;276;63004;-58
2021/01/22 21:18:48;;;;;;;0.70;0.70;;;;;;;3.15;84.74;94654.50;299395;239;63009;-58
2021/01/22 21:23:48;;;;;;;1.15;1.15;;;;;;;3.23;84.58;94667.19;299394;223;64005;-63
2021/01/22 21:28:53;;;;;;;0.90;0.90;;;;;;;3.23;84.11;94661.84;299395;241;63009;-58
2021/01/22 21:33:54;;;;;;;0.90;0.90;;;;;;;3.12;83.99;94667.72;299395;199;63005;-61
2021/01/22 21:38:55;;;;;;;3.03;2.08;;;;;;;3.17;84.17;94668.41;299395;225;63009;-55
2021/01/22 21:43:56;;;;;;;1.12;1.12;;;;;;;3.01;85.01;94670.63;299395;196;63004;-63
2021/01/22 21:48:57;;;;;;;1.77;1.67;;;;;;;2.97;84.72;94674.19;299395;223;63009;-58
2021/01/22 21:53:58;;;;;;;1.45;1.35;;;;;;;2.83;85.20;94678.75;299395;229;63005;-67
2021/01/22 21:59:01;;;;;;;0.80;0.80;;;;;;;2.68;85.13;94694.03;299395;260;63008;-60
2021/01/22 22:04:02;;;;;;;0.70;0.70;;;;;;;2.54;84.37;94703.13;299395;202;63004;-64
2021/01/22 22:09:04;;;;;;;0.70;0.70;;;;;;;2.45;84.37;94721.72;299395;206;63009;-64
2021/01/22 22:14:08;;;;;;;0.70;0.70;;;;;;;2.29;83.97;94734.59;299395;228;63004;-67
2021/01/22 22:19:10;;;;;;;0.95;0.95;;;;;;;1.98;83.79;94734.28;299417;224;63009;-57
2021/01/22 22:24:14;;;;;;;0.70;0.70;;;;;;;1.73;83.01;94723.97;299395;215;63005;-65
2021/01/22 22:29:15;;;;;;;0.80;0.80;;;;;;;1.71;83.10;94744.06;299377;227;125008;-58
2021/01/22 22:34:16;;;;;;;0.80;0.80;;;;;;;1.36;84.65;94754.16;299395;225;63004;-63
2021/01/22 22:39:17;;;;;;;0.77;0.77;;;;;;;1.33;85.02;94752.84;299395;312;63009;-69
2021/01/22 22:44:21;;;;;;;0.80;0.80;;;;;;;1.30;83.59;94761.44;299395;198;63004;-63
2021/01/22 22:49:22;;;;;;;0.70;0.70;;;;;;;1.39;83.60;94774.16;299417;248;63009;-61
2021/01/22 22:54:23;;;;;;;0.73;0.73;;;;;;;1.07;84.91;94778.25;299395;222;63009;-60
2021/01/22 22:59:24;;;;;;;0.80;0.80;;;;;;;0.98;86.35;94798.66;299395;203;63008;-66
2021/01/22 23:04:25;;;;;;;0.70;0.70;;;;;;;0.91;87.11;94800.88;299395;202;63004;-70
2021/01/22 23:09:26;;;;;;;0.75;0.75;;;;;;;0.88;87.36;94812.09;299395;235;63009;-68
2021/01/22 23:14:27;;;;;;;0.73;0.73;;;;;;;0.80;86.92;94805.50;299395;361;63005;-63
2021/01/22 23:19:32;;;;;;;0.70;0.70;;;;;;;0.90;87.23;94815.28;299395;228;63009;-72
2021/01/22 23:24:33;;;;;;;0.82;0.82;;;;;;;0.82;86.52;94822.03;299395;225;63005;-59
2021/01/22 23:29:35;;;;;;;0.90;0.90;;;;;;;0.70;87.26;94826.16;299395;219;63019;-59
2021/01/22 23:34:37;;;;;;;0.70;0.70;;;;;;;0.63;88.31;94842.50;299395;370;63004;-61
2021/01/22 23:39:38;;;;;;;0.80;0.80;;;;;;;0.63;88.69;94848.66;299395;228;63005;-61
2021/01/22 23:44:39;;;;;;;0.80;0.80;;;;;;;0.55;88.70;94846.56;299395;222;63005;-60
2021/01/22 23:49:40;;;;;;;0.70;0.70;;;;;;;0.56;88.66;94858.84;299395;208;63009;-60
2021/01/22 23:54:43;;;;;;;0.80;0.80;;;;;;;0.49;88.92;94870.91;299395;345;63005;-58
2021/01/22 23:59:46;;;;;;;0.80;0.80;;;;;;;0.46;89.33;94874.13;299377;285;125009;-59
